sensor_id;sensor_type;location;lat;lon;timestamp;P1;durP1;ratioP1;P2;durP2;ratioP2
21758;SDS011;11041;50.854;20.580;2023-06-22T00:02:25;20.05;;;10.43;;
21758;SDS011;11041;50.854;20.580;2023-06-22T00:04:51;18.10;;;13.23;;
21758;SDS011;11041;50.854;20.580;2023-06-22T00:07:18;17.85;;;12.55;;
21758;SDS011;11041;50.854;20.580;2023-06-22T00:09:44;16.33;;;11.55;;
21758;SDS011;11041;50.854;20.580;2023-06-22T00:12:11;17.48;;;12.70;;
21758;SDS011;11041;50.854;20.580;2023-06-22T00:14:37;19.17;;;13.18;;
21758;SDS011;11041;50.854;20.580;2023-06-22T00:17:04;17.13;;;12.73;;
21758;SDS011;11041;50.854;20.580;2023-06-22T00:19:30;20.63;;;14.05;;
21758;SDS011;11041;50.854;20.580;2023-06-22T00:21:58;18.17;;;12.43;;
21758;SDS011;11041;50.854;20.580;2023-06-22T00:24:25;16.88;;;13.50;;
21758;SDS011;11041;50.854;20.580;2023-06-22T00:26:52;19.23;;;13.15;;
21758;SDS011;11041;50.854;20.580;2023-06-22T00:29:18;17.67;;;13.57;;
21758;SDS011;11041;50.854;20.580;2023-06-22T00:31:45;17.98;;;13.43;;
21758;SDS011;11041;50.854;20.580;2023-06-22T00:34:12;19.77;;;14.68;;
21758;SDS011;11041;50.854;20.580;2023-06-22T00:36:38;21.92;;;14.95;;
21758;SDS011;11041;50.854;20.580;2023-06-22T00:39:06;22.33;;;15.32;;
21758;SDS011;11041;50.854;20.580;2023-06-22T00:41:33;24.50;;;14.95;;
21758;SDS011;11041;50.854;20.580;2023-06-22T00:44:00;22.67;;;16.27;;
21758;SDS011;11041;50.854;20.580;2023-06-22T00:46:27;17.60;;;13.90;;
21758;SDS011;11041;50.854;20.580;2023-06-22T00:48:53;18.95;;;15.30;;
21758;SDS011;11041;50.854;20.580;2023-06-22T00:51:22;15.60;;;13.70;;
21758;SDS011;11041;50.854;20.580;2023-06-22T00:53:50;17.75;;;14.45;;
21758;SDS011;11041;50.854;20.580;2023-06-22T00:56:18;20.88;;;15.32;;
21758;SDS011;11041;50.854;20.580;2023-06-22T00:58:50;19.20;;;14.80;;
21758;SDS011;11041;50.854;20.580;2023-06-22T01:01:20;21.63;;;14.93;;
21758;SDS011;11041;50.854;20.580;2023-06-22T01:03:49;20.52;;;14.70;;
21758;SDS011;11041;50.854;20.580;2023-06-22T01:06:18;19.30;;;15.23;;
21758;SDS011;11041;50.854;20.580;2023-06-22T01:09:12;21.30;;;14.70;;
21758;SDS011;11041;50.854;20.580;2023-06-22T01:11:50;16.35;;;14.52;;
21758;SDS011;11041;50.854;20.580;2023-06-22T01:14:35;22.25;;;15.07;;
21758;SDS011;11041;50.854;20.580;2023-06-22T01:17:12;16.30;;;13.93;;
21758;SDS011;11041;50.854;20.580;2023-06-22T01:19:44;18.77;;;15.68;;
21758;SDS011;11041;50.854;20.580;2023-06-22T01:22:22;18.50;;;15.77;;
21758;SDS011;11041;50.854;20.580;2023-06-22T01:27:53;22.67;;;16.70;;
21758;SDS011;11041;50.854;20.580;2023-06-22T01:30:41;37.67;;;18.92;;
21758;SDS011;11041;50.854;20.580;2023-06-22T01:33:12;19.67;;;16.02;;
21758;SDS011;11041;50.854;20.580;2023-06-22T01:35:41;22.33;;;17.55;;
21758;SDS011;11041;50.854;20.580;2023-06-22T01:38:09;20.17;;;16.83;;
21758;SDS011;11041;50.854;20.580;2023-06-22T01:40:37;20.73;;;17.48;;
21758;SDS011;11041;50.854;20.580;2023-06-22T01:43:04;17.63;;;15.00;;
21758;SDS011;11041;50.854;20.580;2023-06-22T01:45:32;21.50;;;16.95;;
21758;SDS011;11041;50.854;20.580;2023-06-22T01:47:58;21.70;;;16.95;;
21758;SDS011;11041;50.854;20.580;2023-06-22T01:50:26;21.27;;;17.27;;
21758;SDS011;11041;50.854;20.580;2023-06-22T01:52:54;17.95;;;16.02;;
21758;SDS011;11041;50.854;20.580;2023-06-22T01:55:21;20.63;;;16.40;;
21758;SDS011;11041;50.854;20.580;2023-06-22T01:57:47;22.02;;;16.90;;
21758;SDS011;11041;50.854;20.580;2023-06-22T02:00:15;25.90;;;17.70;;
21758;SDS011;11041;50.854;20.580;2023-06-22T02:02:57;17.45;;;15.30;;
21758;SDS011;11041;50.854;20.580;2023-06-22T02:05:33;19.70;;;15.40;;
21758;SDS011;11041;50.854;20.580;2023-06-22T02:08:21;18.50;;;14.98;;
21758;SDS011;11041;50.854;20.580;2023-06-22T02:10:54;20.52;;;15.95;;
21758;SDS011;11041;50.854;20.580;2023-06-22T02:13:24;19.90;;;16.42;;
21758;SDS011;11041;50.854;20.580;2023-06-22T02:15:52;29.02;;;17.27;;
21758;SDS011;11041;50.854;20.580;2023-06-22T02:18:19;19.48;;;16.45;;
21758;SDS011;11041;50.854;20.580;2023-06-22T02:20:46;23.08;;;19.17;;
21758;SDS011;11041;50.854;20.580;2023-06-22T02:23:13;21.35;;;17.85;;
21758;SDS011;11041;50.854;20.580;2023-06-22T02:25:39;26.25;;;19.17;;
21758;SDS011;11041;50.854;20.580;2023-06-22T02:28:09;24.35;;;19.40;;
21758;SDS011;11041;50.854;20.580;2023-06-22T02:30:36;24.95;;;18.42;;
21758;SDS011;11041;50.854;20.580;2023-06-22T02:33:03;22.42;;;17.67;;
21758;SDS011;11041;50.854;20.580;2023-06-22T02:35:30;25.27;;;20.02;;
21758;SDS011;11041;50.854;20.580;2023-06-22T02:38:00;23.80;;;18.08;;
21758;SDS011;11041;50.854;20.580;2023-06-22T02:40:28;20.45;;;17.60;;
21758;SDS011;11041;50.854;20.580;2023-06-22T02:42:55;21.17;;;17.17;;
21758;SDS011;11041;50.854;20.580;2023-06-22T02:45:27;20.23;;;16.83;;
21758;SDS011;11041;50.854;20.580;2023-06-22T02:47:54;20.55;;;16.67;;
21758;SDS011;11041;50.854;20.580;2023-06-22T02:50:22;21.38;;;18.08;;
21758;SDS011;11041;50.854;20.580;2023-06-22T02:52:49;19.33;;;16.15;;
21758;SDS011;11041;50.854;20.580;2023-06-22T02:55:15;20.08;;;16.63;;
21758;SDS011;11041;50.854;20.580;2023-06-22T02:57:42;19.38;;;17.02;;
21758;SDS011;11041;50.854;20.580;2023-06-22T03:00:13;20.35;;;16.05;;
21758;SDS011;11041;50.854;20.580;2023-06-22T03:02:44;22.38;;;17.63;;
21758;SDS011;11041;50.854;20.580;2023-06-22T03:05:15;21.08;;;17.10;;
21758;SDS011;11041;50.854;20.580;2023-06-22T03:07:43;20.02;;;17.75;;
21758;SDS011;11041;50.854;20.580;2023-06-22T03:10:11;20.27;;;15.95;;
21758;SDS011;11041;50.854;20.580;2023-06-22T03:12:39;18.45;;;16.45;;
21758;SDS011;11041;50.854;20.580;2023-06-22T03:15:08;23.50;;;17.83;;
21758;SDS011;11041;50.854;20.580;2023-06-22T03:17:38;22.58;;;17.90;;
21758;SDS011;11041;50.854;20.580;2023-06-22T03:20:07;20.50;;;17.25;;
21758;SDS011;11041;50.854;20.580;2023-06-22T03:22:37;30.23;;;18.58;;
21758;SDS011;11041;50.854;20.580;2023-06-22T03:25:06;22.17;;;18.15;;
21758;SDS011;11041;50.854;20.580;2023-06-22T03:27:41;20.83;;;18.55;;
21758;SDS011;11041;50.854;20.580;2023-06-22T03:30:10;21.63;;;17.85;;
21758;SDS011;11041;50.854;20.580;2023-06-22T03:32:37;20.40;;;18.02;;
21758;SDS011;11041;50.854;20.580;2023-06-22T03:35:04;23.35;;;17.80;;
21758;SDS011;11041;50.854;20.580;2023-06-22T03:37:32;19.80;;;17.77;;
21758;SDS011;11041;50.854;20.580;2023-06-22T03:39:58;24.90;;;17.83;;
21758;SDS011;11041;50.854;20.580;2023-06-22T03:42:25;20.80;;;18.15;;
21758;SDS011;11041;50.854;20.580;2023-06-22T03:44:52;22.45;;;18.83;;
21758;SDS011;11041;50.854;20.580;2023-06-22T03:47:19;24.90;;;19.55;;
21758;SDS011;11041;50.854;20.580;2023-06-22T03:49:45;24.38;;;19.73;;
21758;SDS011;11041;50.854;20.580;2023-06-22T03:52:12;23.70;;;19.67;;
21758;SDS011;11041;50.854;20.580;2023-06-22T03:54:38;27.95;;;20.15;;
21758;SDS011;11041;50.854;20.580;2023-06-22T03:57:05;22.10;;;17.90;;
21758;SDS011;11041;50.854;20.580;2023-06-22T03:59:31;30.90;;;21.98;;
21758;SDS011;11041;50.854;20.580;2023-06-22T04:01:58;31.08;;;23.27;;
21758;SDS011;11041;50.854;20.580;2023-06-22T04:04:25;32.47;;;23.00;;
21758;SDS011;11041;50.854;20.580;2023-06-22T04:06:51;28.38;;;21.13;;
21758;SDS011;11041;50.854;20.580;2023-06-22T04:09:18;28.85;;;21.33;;
21758;SDS011;11041;50.854;20.580;2023-06-22T04:11:44;25.83;;;20.52;;
21758;SDS011;11041;50.854;20.580;2023-06-22T04:14:11;25.98;;;21.10;;
21758;SDS011;11041;50.854;20.580;2023-06-22T04:16:37;27.90;;;21.83;;
21758;SDS011;11041;50.854;20.580;2023-06-22T04:19:04;24.15;;;19.88;;
21758;SDS011;11041;50.854;20.580;2023-06-22T04:21:30;30.17;;;21.00;;
21758;SDS011;11041;50.854;20.580;2023-06-22T04:23:57;31.65;;;21.25;;
21758;SDS011;11041;50.854;20.580;2023-06-22T04:26:23;27.92;;;22.38;;
21758;SDS011;11041;50.854;20.580;2023-06-22T04:28:50;26.73;;;22.13;;
21758;SDS011;11041;50.854;20.580;2023-06-22T04:31:21;30.08;;;23.98;;
21758;SDS011;11041;50.854;20.580;2023-06-22T04:33:57;31.10;;;25.17;;
21758;SDS011;11041;50.854;20.580;2023-06-22T04:36:33;28.35;;;22.40;;
21758;SDS011;11041;50.854;20.580;2023-06-22T04:39:06;29.40;;;21.98;;
21758;SDS011;11041;50.854;20.580;2023-06-22T04:41:39;31.65;;;23.95;;
21758;SDS011;11041;50.854;20.580;2023-06-22T04:44:12;35.03;;;23.63;;
21758;SDS011;11041;50.854;20.580;2023-06-22T04:46:59;32.20;;;25.88;;
21758;SDS011;11041;50.854;20.580;2023-06-22T04:49:29;29.45;;;24.63;;
21758;SDS011;11041;50.854;20.580;2023-06-22T04:52:02;30.63;;;26.63;;
21758;SDS011;11041;50.854;20.580;2023-06-22T04:54:31;34.28;;;27.75;;
21758;SDS011;11041;50.854;20.580;2023-06-22T04:57:00;33.90;;;28.15;;
21758;SDS011;11041;50.854;20.580;2023-06-22T04:59:29;38.55;;;32.28;;
21758;SDS011;11041;50.854;20.580;2023-06-22T05:01:57;45.17;;;34.08;;
21758;SDS011;11041;50.854;20.580;2023-06-22T05:04:27;48.17;;;39.25;;
21758;SDS011;11041;50.854;20.580;2023-06-22T05:06:59;51.65;;;38.92;;
21758;SDS011;11041;50.854;20.580;2023-06-22T05:09:26;49.80;;;38.38;;
21758;SDS011;11041;50.854;20.580;2023-06-22T05:11:52;53.60;;;38.60;;
21758;SDS011;11041;50.854;20.580;2023-06-22T05:14:20;48.78;;;37.47;;
21758;SDS011;11041;50.854;20.580;2023-06-22T05:16:46;48.22;;;36.65;;
21758;SDS011;11041;50.854;20.580;2023-06-22T05:19:16;54.60;;;38.80;;
21758;SDS011;11041;50.854;20.580;2023-06-22T05:21:43;56.75;;;39.70;;
21758;SDS011;11041;50.854;20.580;2023-06-22T05:24:09;56.63;;;40.60;;
21758;SDS011;11041;50.854;20.580;2023-06-22T05:26:36;56.83;;;39.38;;
21758;SDS011;11041;50.854;20.580;2023-06-22T05:29:03;63.45;;;43.92;;
21758;SDS011;11041;50.854;20.580;2023-06-22T05:31:30;62.92;;;45.92;;
21758;SDS011;11041;50.854;20.580;2023-06-22T05:33:57;62.67;;;44.38;;
21758;SDS011;11041;50.854;20.580;2023-06-22T05:36:23;64.53;;;45.58;;
21758;SDS011;11041;50.854;20.580;2023-06-22T05:38:51;59.05;;;42.85;;
21758;SDS011;11041;50.854;20.580;2023-06-22T05:41:19;67.82;;;49.05;;
21758;SDS011;11041;50.854;20.580;2023-06-22T05:43:45;63.50;;;44.35;;
21758;SDS011;11041;50.854;20.580;2023-06-22T05:46:12;60.13;;;43.10;;
21758;SDS011;11041;50.854;20.580;2023-06-22T05:48:39;64.80;;;45.55;;
21758;SDS011;11041;50.854;20.580;2023-06-22T05:51:06;66.20;;;47.42;;
21758;SDS011;11041;50.854;20.580;2023-06-22T05:53:32;62.83;;;43.50;;
21758;SDS011;11041;50.854;20.580;2023-06-22T05:55:59;58.22;;;43.10;;
21758;SDS011;11041;50.854;20.580;2023-06-22T05:58:25;59.25;;;44.00;;
21758;SDS011;11041;50.854;20.580;2023-06-22T06:00:52;58.88;;;44.22;;
21758;SDS011;11041;50.854;20.580;2023-06-22T06:03:18;55.75;;;41.22;;
21758;SDS011;11041;50.854;20.580;2023-06-22T06:05:45;58.35;;;42.72;;
21758;SDS011;11041;50.854;20.580;2023-06-22T06:08:11;57.10;;;41.75;;
21758;SDS011;11041;50.854;20.580;2023-06-22T06:10:38;62.75;;;43.38;;
21758;SDS011;11041;50.854;20.580;2023-06-22T06:13:04;59.10;;;43.17;;
21758;SDS011;11041;50.854;20.580;2023-06-22T06:15:32;57.30;;;42.75;;
21758;SDS011;11041;50.854;20.580;2023-06-22T06:18:00;55.78;;;42.53;;
21758;SDS011;11041;50.854;20.580;2023-06-22T06:20:30;54.25;;;42.00;;
21758;SDS011;11041;50.854;20.580;2023-06-22T06:22:57;53.08;;;41.08;;
21758;SDS011;11041;50.854;20.580;2023-06-22T06:25:23;48.08;;;38.67;;
21758;SDS011;11041;50.854;20.580;2023-06-22T06:27:51;46.85;;;40.13;;
21758;SDS011;11041;50.854;20.580;2023-06-22T06:30:20;45.97;;;38.13;;
21758;SDS011;11041;50.854;20.580;2023-06-22T06:32:47;44.05;;;36.35;;
21758;SDS011;11041;50.854;20.580;2023-06-22T06:35:15;45.35;;;36.60;;
21758;SDS011;11041;50.854;20.580;2023-06-22T06:37:43;46.55;;;36.78;;
21758;SDS011;11041;50.854;20.580;2023-06-22T06:40:12;39.40;;;34.00;;
21758;SDS011;11041;50.854;20.580;2023-06-22T06:42:41;42.70;;;33.78;;
21758;SDS011;11041;50.854;20.580;2023-06-22T06:45:11;38.40;;;33.38;;
21758;SDS011;11041;50.854;20.580;2023-06-22T06:47:41;41.20;;;32.15;;
21758;SDS011;11041;50.854;20.580;2023-06-22T06:50:09;36.83;;;31.63;;
21758;SDS011;11041;50.854;20.580;2023-06-22T06:52:36;35.95;;;32.13;;
21758;SDS011;11041;50.854;20.580;2023-06-22T06:55:04;34.58;;;29.17;;
21758;SDS011;11041;50.854;20.580;2023-06-22T06:57:37;35.47;;;30.90;;
21758;SDS011;11041;50.854;20.580;2023-06-22T07:00:06;37.08;;;31.55;;
21758;SDS011;11041;50.854;20.580;2023-06-22T07:02:39;35.55;;;30.83;;
21758;SDS011;11041;50.854;20.580;2023-06-22T07:05:11;35.42;;;29.83;;
21758;SDS011;11041;50.854;20.580;2023-06-22T07:07:38;35.00;;;30.38;;
21758;SDS011;11041;50.854;20.580;2023-06-22T07:10:08;35.10;;;31.40;;
21758;SDS011;11041;50.854;20.580;2023-06-22T07:12:35;36.28;;;31.90;;
21758;SDS011;11041;50.854;20.580;2023-06-22T07:15:07;36.15;;;30.95;;
21758;SDS011;11041;50.854;20.580;2023-06-22T07:17:37;34.13;;;30.10;;
21758;SDS011;11041;50.854;20.580;2023-06-22T07:20:06;32.13;;;28.75;;
21758;SDS011;11041;50.854;20.580;2023-06-22T07:22:41;32.65;;;29.08;;
21758;SDS011;11041;50.854;20.580;2023-06-22T07:25:12;35.15;;;27.95;;
21758;SDS011;11041;50.854;20.580;2023-06-22T07:27:44;30.05;;;26.83;;
21758;SDS011;11041;50.854;20.580;2023-06-22T07:30:23;31.13;;;27.83;;
21758;SDS011;11041;50.854;20.580;2023-06-22T07:32:49;32.85;;;29.45;;
21758;SDS011;11041;50.854;20.580;2023-06-22T07:35:16;30.42;;;27.23;;
21758;SDS011;11041;50.854;20.580;2023-06-22T07:37:43;30.35;;;26.05;;
21758;SDS011;11041;50.854;20.580;2023-06-22T07:40:09;29.45;;;26.30;;
21758;SDS011;11041;50.854;20.580;2023-06-22T07:42:36;29.30;;;26.30;;
21758;SDS011;11041;50.854;20.580;2023-06-22T07:45:03;28.90;;;25.38;;
21758;SDS011;11041;50.854;20.580;2023-06-22T07:47:33;28.10;;;25.20;;
21758;SDS011;11041;50.854;20.580;2023-06-22T07:50:04;28.02;;;25.00;;
21758;SDS011;11041;50.854;20.580;2023-06-22T07:52:31;28.60;;;25.45;;
21758;SDS011;11041;50.854;20.580;2023-06-22T07:54:58;27.83;;;24.70;;
21758;SDS011;11041;50.854;20.580;2023-06-22T07:57:25;27.48;;;24.77;;
21758;SDS011;11041;50.854;20.580;2023-06-22T07:59:58;24.65;;;22.15;;
21758;SDS011;11041;50.854;20.580;2023-06-22T08:02:41;25.15;;;22.63;;
21758;SDS011;11041;50.854;20.580;2023-06-22T08:05:10;25.83;;;23.05;;
21758;SDS011;11041;50.854;20.580;2023-06-22T08:07:37;25.92;;;23.30;;
21758;SDS011;11041;50.854;20.580;2023-06-22T08:10:04;26.38;;;23.85;;
21758;SDS011;11041;50.854;20.580;2023-06-22T08:12:32;25.98;;;23.27;;
21758;SDS011;11041;50.854;20.580;2023-06-22T08:14:59;20.95;;;18.88;;
21758;SDS011;11041;50.854;20.580;2023-06-22T08:17:25;20.60;;;18.40;;
21758;SDS011;11041;50.854;20.580;2023-06-22T08:19:52;19.05;;;17.00;;
21758;SDS011;11041;50.854;20.580;2023-06-22T08:22:18;18.60;;;16.80;;
21758;SDS011;11041;50.854;20.580;2023-06-22T08:24:45;19.13;;;17.27;;
21758;SDS011;11041;50.854;20.580;2023-06-22T08:27:11;17.92;;;16.23;;
21758;SDS011;11041;50.854;20.580;2023-06-22T08:29:39;19.10;;;17.17;;
21758;SDS011;11041;50.854;20.580;2023-06-22T08:32:11;23.80;;;19.42;;
21758;SDS011;11041;50.854;20.580;2023-06-22T08:34:38;18.20;;;16.33;;
21758;SDS011;11041;50.854;20.580;2023-06-22T08:37:08;16.92;;;15.40;;
21758;SDS011;11041;50.854;20.580;2023-06-22T08:39:35;19.38;;;17.58;;
21758;SDS011;11041;50.854;20.580;2023-06-22T08:42:02;19.55;;;17.73;;
21758;SDS011;11041;50.854;20.580;2023-06-22T08:44:28;18.52;;;16.77;;
21758;SDS011;11041;50.854;20.580;2023-06-22T08:46:55;17.55;;;15.93;;
21758;SDS011;11041;50.854;20.580;2023-06-22T08:49:21;16.77;;;15.07;;
21758;SDS011;11041;50.854;20.580;2023-06-22T08:51:48;14.68;;;13.38;;
21758;SDS011;11041;50.854;20.580;2023-06-22T08:54:15;15.40;;;13.77;;
21758;SDS011;11041;50.854;20.580;2023-06-22T08:56:41;13.43;;;12.23;;
21758;SDS011;11041;50.854;20.580;2023-06-22T08:59:09;12.95;;;11.70;;
21758;SDS011;11041;50.854;20.580;2023-06-22T09:01:36;14.85;;;13.30;;
21758;SDS011;11041;50.854;20.580;2023-06-22T09:04:03;13.57;;;12.38;;
21758;SDS011;11041;50.854;20.580;2023-06-22T09:06:31;13.23;;;12.02;;
21758;SDS011;11041;50.854;20.580;2023-06-22T09:08:58;13.20;;;11.90;;
21758;SDS011;11041;50.854;20.580;2023-06-22T09:11:25;12.52;;;11.32;;
21758;SDS011;11041;50.854;20.580;2023-06-22T09:13:52;12.70;;;11.45;;
21758;SDS011;11041;50.854;20.580;2023-06-22T09:16:19;13.52;;;11.18;;
21758;SDS011;11041;50.854;20.580;2023-06-22T09:18:49;13.50;;;11.88;;
21758;SDS011;11041;50.854;20.580;2023-06-22T09:21:15;12.25;;;11.07;;
21758;SDS011;11041;50.854;20.580;2023-06-22T09:23:42;13.15;;;11.52;;
21758;SDS011;11041;50.854;20.580;2023-06-22T09:26:09;12.40;;;10.60;;
21758;SDS011;11041;50.854;20.580;2023-06-22T09:28:36;10.00;;;9.10;;
21758;SDS011;11041;50.854;20.580;2023-06-22T09:31:02;10.40;;;9.40;;
21758;SDS011;11041;50.854;20.580;2023-06-22T09:33:29;10.10;;;9.23;;
21758;SDS011;11041;50.854;20.580;2023-06-22T09:35:55;10.20;;;9.35;;
21758;SDS011;11041;50.854;20.580;2023-06-22T09:38:22;10.40;;;9.40;;
21758;SDS011;11041;50.854;20.580;2023-06-22T09:40:48;9.55;;;8.50;;
21758;SDS011;11041;50.854;20.580;2023-06-22T09:43:15;9.38;;;8.57;;
21758;SDS011;11041;50.854;20.580;2023-06-22T09:45:42;12.55;;;7.82;;
21758;SDS011;11041;50.854;20.580;2023-06-22T09:48:09;9.55;;;8.30;;
21758;SDS011;11041;50.854;20.580;2023-06-22T09:50:35;9.93;;;7.55;;
21758;SDS011;11041;50.854;20.580;2023-06-22T09:53:03;13.32;;;10.02;;
21758;SDS011;11041;50.854;20.580;2023-06-22T09:55:29;11.50;;;9.68;;
21758;SDS011;11041;50.854;20.580;2023-06-22T09:57:56;10.45;;;9.45;;
21758;SDS011;11041;50.854;20.580;2023-06-22T10:00:23;10.98;;;9.88;;
21758;SDS011;11041;50.854;20.580;2023-06-22T10:02:57;15.13;;;9.35;;
21758;SDS011;11041;50.854;20.580;2023-06-22T10:05:24;9.82;;;8.88;;
21758;SDS011;11041;50.854;20.580;2023-06-22T10:07:58;10.48;;;8.50;;
21758;SDS011;11041;50.854;20.580;2023-06-22T10:10:35;13.68;;;9.60;;
21758;SDS011;11041;50.854;20.580;2023-06-22T10:13:12;10.63;;;8.57;;
21758;SDS011;11041;50.854;20.580;2023-06-22T10:15:41;10.18;;;9.18;;
21758;SDS011;11041;50.854;20.580;2023-06-22T10:18:08;10.40;;;9.40;;
21758;SDS011;11041;50.854;20.580;2023-06-22T10:20:34;9.50;;;8.57;;
21758;SDS011;11041;50.854;20.580;2023-06-22T10:23:01;9.10;;;8.20;;
21758;SDS011;11041;50.854;20.580;2023-06-22T10:25:27;9.00;;;8.07;;
21758;SDS011;11041;50.854;20.580;2023-06-22T10:27:54;9.43;;;8.55;;
21758;SDS011;11041;50.854;20.580;2023-06-22T10:30:20;10.68;;;8.43;;
21758;SDS011;11041;50.854;20.580;2023-06-22T10:32:47;9.15;;;7.53;;
21758;SDS011;11041;50.854;20.580;2023-06-22T10:35:13;8.15;;;7.20;;
21758;SDS011;11041;50.854;20.580;2023-06-22T10:37:44;9.32;;;8.27;;
21758;SDS011;11041;50.854;20.580;2023-06-22T10:40:12;7.63;;;6.88;;
21758;SDS011;11041;50.854;20.580;2023-06-22T10:42:40;9.02;;;8.13;;
21758;SDS011;11041;50.854;20.580;2023-06-22T10:45:07;9.98;;;7.45;;
21758;SDS011;11041;50.854;20.580;2023-06-22T10:47:35;8.20;;;6.93;;
21758;SDS011;11041;50.854;20.580;2023-06-22T10:50:02;7.18;;;6.57;;
21758;SDS011;11041;50.854;20.580;2023-06-22T10:52:29;7.25;;;6.63;;
21758;SDS011;11041;50.854;20.580;2023-06-22T10:54:56;8.02;;;7.22;;
21758;SDS011;11041;50.854;20.580;2023-06-22T10:57:23;7.72;;;6.95;;
21758;SDS011;11041;50.854;20.580;2023-06-22T10:59:49;6.38;;;5.78;;
21758;SDS011;11041;50.854;20.580;2023-06-22T11:02:16;9.88;;;7.22;;
21758;SDS011;11041;50.854;20.580;2023-06-22T11:04:42;7.07;;;6.22;;
21758;SDS011;11041;50.854;20.580;2023-06-22T11:07:09;7.25;;;6.35;;
21758;SDS011;11041;50.854;20.580;2023-06-22T11:09:35;8.80;;;6.25;;
21758;SDS011;11041;50.854;20.580;2023-06-22T11:12:03;8.98;;;6.70;;
21758;SDS011;11041;50.854;20.580;2023-06-22T11:14:31;6.43;;;5.93;;
21758;SDS011;11041;50.854;20.580;2023-06-22T11:16:59;6.38;;;5.78;;
21758;SDS011;11041;50.854;20.580;2023-06-22T11:19:25;6.53;;;5.75;;
21758;SDS011;11041;50.854;20.580;2023-06-22T11:21:52;6.68;;;6.18;;
21758;SDS011;11041;50.854;20.580;2023-06-22T11:24:19;7.43;;;6.50;;
21758;SDS011;11041;50.854;20.580;2023-06-22T11:26:45;6.72;;;6.03;;
21758;SDS011;11041;50.854;20.580;2023-06-22T11:29:12;5.93;;;5.43;;
21758;SDS011;11041;50.854;20.580;2023-06-22T11:31:38;7.03;;;6.28;;
21758;SDS011;11041;50.854;20.580;2023-06-22T11:34:04;8.82;;;6.47;;
21758;SDS011;11041;50.854;20.580;2023-06-22T11:36:31;5.85;;;5.18;;
21758;SDS011;11041;50.854;20.580;2023-06-22T11:38:58;7.05;;;5.45;;
21758;SDS011;11041;50.854;20.580;2023-06-22T11:41:25;6.15;;;5.45;;
21758;SDS011;11041;50.854;20.580;2023-06-22T11:43:52;7.07;;;5.97;;
21758;SDS011;11041;50.854;20.580;2023-06-22T11:46:18;6.95;;;6.00;;
21758;SDS011;11041;50.854;20.580;2023-06-22T11:48:45;7.70;;;5.90;;
21758;SDS011;11041;50.854;20.580;2023-06-22T11:51:11;7.35;;;5.53;;
21758;SDS011;11041;50.854;20.580;2023-06-22T11:53:37;7.13;;;5.30;;
21758;SDS011;11041;50.854;20.580;2023-06-22T11:56:04;6.00;;;5.30;;
21758;SDS011;11041;50.854;20.580;2023-06-22T11:58:30;7.13;;;5.57;;
21758;SDS011;11041;50.854;20.580;2023-06-22T12:00:59;5.53;;;5.05;;
21758;SDS011;11041;50.854;20.580;2023-06-22T12:03:26;5.90;;;5.25;;
21758;SDS011;11041;50.854;20.580;2023-06-22T12:05:57;5.72;;;5.22;;
21758;SDS011;11041;50.854;20.580;2023-06-22T12:08:25;5.68;;;5.18;;
21758;SDS011;11041;50.854;20.580;2023-06-22T12:10:53;6.10;;;5.28;;
21758;SDS011;11041;50.854;20.580;2023-06-22T12:13:19;5.60;;;5.10;;
21758;SDS011;11041;50.854;20.580;2023-06-22T12:15:47;5.90;;;5.30;;
21758;SDS011;11041;50.854;20.580;2023-06-22T12:18:13;7.00;;;5.80;;
21758;SDS011;11041;50.854;20.580;2023-06-22T12:20:40;5.55;;;5.05;;
21758;SDS011;11041;50.854;20.580;2023-06-22T12:23:10;6.57;;;5.03;;
21758;SDS011;11041;50.854;20.580;2023-06-22T12:25:47;5.93;;;5.32;;
21758;SDS011;11041;50.854;20.580;2023-06-22T12:28:14;5.72;;;5.13;;
21758;SDS011;11041;50.854;20.580;2023-06-22T12:30:41;4.72;;;4.38;;
21758;SDS011;11041;50.854;20.580;2023-06-22T12:33:07;5.40;;;4.22;;
21758;SDS011;11041;50.854;20.580;2023-06-22T12:35:34;5.45;;;4.93;;
21758;SDS011;11041;50.854;20.580;2023-06-22T12:38:00;4.95;;;4.45;;
21758;SDS011;11041;50.854;20.580;2023-06-22T12:40:28;6.82;;;5.40;;
21758;SDS011;11041;50.854;20.580;2023-06-22T12:42:55;5.60;;;5.10;;
21758;SDS011;11041;50.854;20.580;2023-06-22T12:45:22;5.25;;;4.85;;
21758;SDS011;11041;50.854;20.580;2023-06-22T12:47:48;5.82;;;5.20;;
21758;SDS011;11041;50.854;20.580;2023-06-22T12:50:15;5.95;;;5.28;;
21758;SDS011;11041;50.854;20.580;2023-06-22T12:52:42;6.10;;;5.50;;
21758;SDS011;11041;50.854;20.580;2023-06-22T12:55:08;7.10;;;5.63;;
21758;SDS011;11041;50.854;20.580;2023-06-22T12:57:35;6.10;;;5.57;;
21758;SDS011;11041;50.854;20.580;2023-06-22T13:00:02;7.18;;;6.38;;
21758;SDS011;11041;50.854;20.580;2023-06-22T13:02:30;6.07;;;5.47;;
21758;SDS011;11041;50.854;20.580;2023-06-22T13:04:57;6.97;;;6.18;;
21758;SDS011;11041;50.854;20.580;2023-06-22T13:07:23;5.43;;;4.93;;
21758;SDS011;11041;50.854;20.580;2023-06-22T13:09:50;6.00;;;5.50;;
21758;SDS011;11041;50.854;20.580;2023-06-22T13:12:17;7.55;;;5.43;;
21758;SDS011;11041;50.854;20.580;2023-06-22T13:14:45;5.75;;;5.25;;
21758;SDS011;11041;50.854;20.580;2023-06-22T13:17:12;6.50;;;5.90;;
21758;SDS011;11041;50.854;20.580;2023-06-22T13:19:40;6.82;;;6.13;;
21758;SDS011;11041;50.854;20.580;2023-06-22T13:25:05;6.45;;;5.85;;
21758;SDS011;11041;50.854;20.580;2023-06-22T13:27:33;6.78;;;5.97;;
21758;SDS011;11041;50.854;20.580;2023-06-22T13:30:00;7.53;;;6.35;;
21758;SDS011;11041;50.854;20.580;2023-06-22T13:32:28;7.22;;;5.63;;
21758;SDS011;11041;50.854;20.580;2023-06-22T13:34:54;6.68;;;6.07;;
21758;SDS011;11041;50.854;20.580;2023-06-22T13:37:21;6.13;;;5.57;;
21758;SDS011;11041;50.854;20.580;2023-06-22T13:39:48;8.40;;;6.70;;
21758;SDS011;11041;50.854;20.580;2023-06-22T13:42:14;8.98;;;5.70;;
21758;SDS011;11041;50.854;20.580;2023-06-22T13:44:41;6.45;;;5.85;;
21758;SDS011;11041;50.854;20.580;2023-06-22T13:47:07;6.63;;;5.40;;
21758;SDS011;11041;50.854;20.580;2023-06-22T13:49:34;6.18;;;5.65;;
21758;SDS011;11041;50.854;20.580;2023-06-22T13:52:01;6.35;;;5.85;;
21758;SDS011;11041;50.854;20.580;2023-06-22T13:54:30;5.80;;;5.30;;
21758;SDS011;11041;50.854;20.580;2023-06-22T13:56:56;6.20;;;5.57;;
21758;SDS011;11041;50.854;20.580;2023-06-22T13:59:23;5.95;;;5.53;;
21758;SDS011;11041;50.854;20.580;2023-06-22T14:01:51;6.15;;;5.55;;
21758;SDS011;11041;50.854;20.580;2023-06-22T14:04:18;6.32;;;5.82;;
21758;SDS011;11041;50.854;20.580;2023-06-22T14:06:44;6.07;;;5.53;;
21758;SDS011;11041;50.854;20.580;2023-06-22T14:09:11;6.50;;;5.60;;
21758;SDS011;11041;50.854;20.580;2023-06-22T14:11:38;6.20;;;5.60;;
21758;SDS011;11041;50.854;20.580;2023-06-22T14:14:05;5.60;;;5.10;;
21758;SDS011;11041;50.854;20.580;2023-06-22T14:16:31;5.80;;;5.30;;
21758;SDS011;11041;50.854;20.580;2023-06-22T14:18:58;6.20;;;5.47;;
21758;SDS011;11041;50.854;20.580;2023-06-22T14:21:25;6.07;;;5.57;;
21758;SDS011;11041;50.854;20.580;2023-06-22T14:23:52;6.22;;;5.60;;
21758;SDS011;11041;50.854;20.580;2023-06-22T14:26:19;5.65;;;5.15;;
21758;SDS011;11041;50.854;20.580;2023-06-22T14:28:46;5.65;;;5.15;;